createdAt,value
2019-01-16T00:00:06.282Z,97.09
2019-01-16T00:01:06.261Z,96.83
2019-01-16T00:02:06.242Z,96.99
2019-01-16T00:03:06.234Z,96.11
2019-01-16T00:04:06.236Z,96.37
2019-01-16T00:05:06.232Z,96.31
2019-01-16T00:06:06.208Z,96.31
2019-01-16T00:07:06.199Z,96.42
2019-01-16T00:08:06.182Z,96.42
2019-01-16T00:09:06.182Z,96.17
2019-01-16T00:10:06.155Z,96.73
2019-01-16T00:11:06.151Z,97.45
2019-01-16T00:12:06.145Z,96.42
2019-01-16T00:13:06.137Z,96.83
2019-01-16T00:14:06.119Z,96.27
2019-01-16T00:15:06.107Z,96.21
2019-01-16T00:16:06.097Z,96.06
2019-01-16T00:17:06.095Z,96.27
2019-01-16T00:18:06.090Z,96.27
2019-01-16T00:19:06.066Z,96.17
2019-01-16T00:20:06.057Z,96.17
2019-01-16T00:21:06.040Z,96.17
2019-01-16T00:22:06.042Z,96.42
2019-01-16T00:23:06.020Z,96.27
2019-01-16T00:24:06.014Z,95.55
2019-01-16T00:25:06.009Z,96.02
2019-01-16T00:26:05.986Z,95.55
2019-01-16T00:27:05.978Z,95.34
2019-01-16T00:28:05.958Z,95.96
2019-01-16T00:29:05.958Z,95.65
2019-01-16T00:30:05.938Z,95.65
2019-01-16T00:31:05.934Z,95.76
2019-01-16T00:32:05.930Z,95.34
2019-01-16T00:33:05.917Z,95.65
2019-01-16T00:34:05.938Z,95.55
2019-01-16T00:35:05.889Z,95.55
2019-01-16T00:36:05.879Z,95.65
2019-01-16T00:37:05.862Z,95.55
2019-01-16T00:38:05.854Z,95.76
2019-01-16T00:39:05.843Z,95.55
2019-01-16T00:40:05.840Z,95.55
2019-01-16T00:41:05.819Z,95.45
2019-01-16T00:42:05.815Z,95.50
2019-01-16T00:43:05.804Z,95.65
2019-01-16T00:44:05.787Z,95.45
2019-01-16T00:45:05.777Z,95.65
2019-01-16T00:46:05.775Z,95.61
2019-01-16T00:47:05.776Z,94.99
2019-01-16T00:48:05.747Z,94.78
2019-01-16T00:49:05.738Z,95.81
2019-01-16T00:50:05.727Z,94.82
2019-01-16T00:51:05.714Z,94.89
2019-01-16T00:52:05.713Z,94.89
2019-01-16T00:53:05.688Z,94.89
2019-01-16T00:54:05.681Z,94.47
2019-01-16T00:55:05.670Z,94.78
2019-01-16T00:56:05.671Z,94.99
2019-01-16T00:57:05.657Z,95.81
2019-01-16T00:58:05.646Z,95.81
2019-01-16T00:59:05.671Z,95.20
2019-01-16T01:00:05.618Z,94.89
2019-01-16T01:01:05.609Z,94.89
2019-01-16T01:02:05.605Z,95.71
2019-01-16T01:03:05.587Z,94.89
2019-01-16T01:04:05.565Z,95.50
2019-01-16T01:05:05.564Z,95.09
2019-01-16T01:06:05.542Z,94.95
2019-01-16T01:07:05.557Z,95.09
2019-01-16T01:08:05.545Z,95.36
2019-01-16T01:09:07.193Z,95.61
2019-01-16T01:10:05.503Z,95.50
2019-01-16T01:11:05.496Z,95.81
2019-01-16T01:12:05.482Z,95.50
2019-01-16T01:13:05.475Z,95.71
2019-01-16T01:14:05.472Z,95.50
2019-01-16T01:15:05.451Z,95.61
2019-01-16T01:16:05.442Z,95.61
2019-01-16T01:17:05.435Z,95.71
2019-01-16T01:18:05.419Z,95.30
2019-01-16T01:19:05.413Z,95.77
2019-01-16T01:20:05.409Z,95.92
2019-01-16T01:21:05.380Z,96.12
2019-01-16T01:22:05.374Z,95.81
2019-01-16T01:23:05.371Z,95.81
2019-01-16T01:24:05.354Z,96.12
2019-01-16T01:25:05.347Z,96.12
2019-01-16T01:26:05.355Z,95.81
2019-01-16T01:27:05.318Z,96.23
2019-01-16T01:28:05.307Z,95.61
2019-01-16T01:29:05.298Z,95.81
2019-01-16T01:30:05.287Z,96.23
2019-01-16T01:31:05.288Z,96.02
2019-01-16T01:32:05.296Z,96.23
2019-01-16T01:33:05.255Z,96.12
2019-01-16T01:34:05.248Z,96.02
2019-01-16T01:35:05.236Z,95.81
2019-01-16T01:36:05.227Z,95.92
2019-01-16T01:37:05.226Z,96.02
2019-01-16T01:38:05.198Z,96.12
2019-01-16T01:39:05.192Z,96.02
2019-01-16T01:40:05.184Z,95.92
2019-01-16T01:41:05.188Z,95.71
2019-01-16T01:42:05.165Z,95.61
2019-01-16T01:43:05.147Z,95.61
2019-01-16T01:44:05.140Z,95.30
2019-01-16T01:45:05.133Z,95.50
2019-01-16T01:46:05.118Z,95.61
2019-01-16T01:47:05.106Z,95.92
2019-01-16T01:48:05.108Z,95.30
2019-01-16T01:49:05.082Z,95.50
2019-01-16T01:50:05.072Z,95.81
2019-01-16T01:51:05.066Z,95.61
2019-01-16T01:52:05.062Z,95.25
2019-01-16T01:53:05.055Z,95.46
2019-01-16T01:54:05.038Z,95.67
2019-01-16T01:55:05.017Z,95.46
2019-01-16T01:56:05.007Z,95.50
2019-01-16T01:57:04.994Z,95.50
2019-01-16T01:58:04.998Z,95.77
2019-01-16T01:59:04.980Z,95.71
2019-01-16T02:00:04.969Z,95.46
2019-01-16T02:01:04.954Z,95.81
2019-01-16T02:02:04.948Z,95.98
2019-01-16T02:03:04.930Z,95.61
2019-01-16T02:04:04.922Z,95.81
2019-01-16T02:05:04.923Z,95.77
2019-01-16T02:06:04.916Z,96.02
2019-01-16T02:07:04.891Z,96.12
2019-01-16T02:08:04.885Z,95.81
2019-01-16T02:09:04.873Z,96.33
2019-01-16T02:10:04.859Z,96.02
2019-01-16T02:11:04.856Z,96.33
2019-01-16T02:12:04.840Z,96.02
2019-01-16T02:13:04.820Z,96.53
2019-01-16T02:14:04.818Z,96.02
2019-01-16T02:15:04.798Z,95.92
2019-01-16T02:16:04.801Z,95.98
2019-01-16T02:17:04.789Z,95.61
2019-01-16T02:18:04.779Z,95.40
2019-01-16T02:19:04.756Z,95.61
2019-01-16T02:20:04.756Z,95.61
2019-01-16T02:21:04.738Z,95.61
2019-01-16T02:22:04.739Z,95.36
2019-01-16T02:23:04.714Z,95.25
2019-01-16T02:24:04.706Z,95.56
2019-01-16T02:25:04.693Z,95.67
2019-01-16T02:26:04.690Z,95.67
2019-01-16T02:27:04.676Z,95.56
2019-01-16T02:28:04.668Z,95.56
2019-01-16T02:29:04.650Z,95.46
2019-01-16T02:30:04.646Z,94.84
2019-01-16T02:31:04.636Z,94.84
2019-01-16T02:32:04.630Z,95.05
2019-01-16T02:33:04.612Z,94.84
2019-01-16T02:34:04.611Z,94.95
2019-01-16T02:35:04.588Z,95.25
2019-01-16T02:36:04.573Z,94.84
2019-01-16T02:37:04.575Z,95.67
2019-01-16T02:38:04.555Z,95.46
2019-01-16T02:39:04.561Z,95.46
2019-01-16T02:40:04.534Z,95.56
2019-01-16T02:41:04.593Z,95.92
2019-01-16T02:42:04.508Z,95.92
2019-01-16T02:43:04.509Z,95.87
2019-01-16T02:44:04.494Z,96.39
2019-01-16T02:45:04.481Z,96.23
2019-01-16T02:46:04.466Z,97.05
2019-01-16T02:47:04.457Z,97.26
2019-01-16T02:48:04.450Z,96.84
2019-01-16T02:49:04.430Z,97.47
2019-01-16T02:50:04.431Z,97.56
2019-01-16T02:51:04.404Z,97.67
2019-01-16T02:52:04.394Z,97.67
2019-01-16T02:53:04.389Z,97.47
2019-01-16T02:54:04.393Z,98.39
2019-01-16T02:55:04.366Z,97.88
2019-01-16T02:56:04.369Z,97.98
2019-01-16T02:57:04.340Z,98.13
2019-01-16T02:58:04.337Z,99.01
2019-01-16T02:59:04.331Z,99.22
2019-01-16T03:00:04.312Z,98.85
2019-01-16T03:01:04.310Z,98.75
2019-01-16T03:02:04.322Z,98.75
2019-01-16T03:03:04.277Z,98.65
2019-01-16T03:04:04.278Z,99.16
2019-01-16T03:05:04.255Z,99.26
2019-01-16T03:06:04.246Z,99.37
2019-01-16T03:07:04.246Z,99.68
2019-01-16T03:08:04.228Z,99.99
2019-01-16T03:09:04.212Z,99.47
2019-01-16T03:10:04.204Z,99.47
2019-01-16T03:11:04.192Z,99.78
2019-01-16T03:12:04.183Z,99.78
2019-01-16T03:13:04.180Z,99.78
2019-01-16T03:14:04.164Z,99.57
2019-01-16T03:15:04.155Z,99.68
2019-01-16T03:16:04.142Z,99.73
2019-01-16T03:17:04.121Z,99.99
2019-01-16T03:18:04.127Z,99.99
2019-01-16T03:19:04.641Z,99.99
2019-01-16T03:20:04.090Z,99.99
2019-01-16T03:21:04.149Z,99.99
2019-01-16T03:22:04.079Z,99.99
2019-01-16T03:23:04.062Z,99.99
2019-01-16T03:24:04.060Z,99.99
2019-01-16T03:25:04.040Z,99.99
2019-01-16T03:26:04.028Z,99.99
2019-01-16T03:27:04.020Z,99.99
2019-01-16T03:28:04.007Z,99.99
2019-01-16T03:29:03.996Z,99.99
2019-01-16T03:30:03.981Z,99.99
2019-01-16T03:31:03.985Z,99.99
2019-01-16T03:32:03.964Z,99.99
2019-01-16T03:33:03.960Z,99.99
2019-01-16T03:34:03.951Z,99.99
2019-01-16T03:35:03.924Z,99.99
2019-01-16T03:36:03.920Z,99.99
2019-01-16T03:37:03.902Z,99.99
2019-01-16T03:38:03.902Z,99.99
2019-01-16T03:39:03.892Z,99.99
2019-01-16T03:40:03.876Z,99.99
2019-01-16T03:41:03.878Z,99.99
2019-01-16T03:42:03.847Z,99.99
2019-01-16T03:43:03.847Z,99.99
2019-01-16T03:44:03.826Z,99.99
2019-01-16T03:45:03.835Z,99.99
2019-01-16T03:46:03.812Z,99.99
2019-01-16T03:47:03.803Z,99.99
2019-01-16T03:48:03.790Z,99.99
2019-01-16T03:49:03.779Z,99.99
2019-01-16T03:50:03.786Z,99.99
2019-01-16T03:51:03.752Z,99.99
2019-01-16T03:52:03.748Z,99.99
2019-01-16T03:53:03.732Z,99.99
2019-01-16T03:54:03.718Z,99.99
2019-01-16T03:55:03.712Z,99.99
2019-01-16T03:56:03.696Z,99.99
2019-01-16T03:57:03.714Z,99.99
2019-01-16T03:58:03.706Z,99.99
2019-01-16T03:59:03.683Z,99.99
2019-01-16T04:00:03.650Z,99.99
2019-01-16T04:01:03.650Z,99.99
2019-01-16T04:02:03.626Z,99.99
2019-01-16T04:03:03.624Z,99.99
2019-01-16T04:04:03.614Z,99.99
2019-01-16T04:05:03.602Z,99.99
2019-01-16T04:06:03.590Z,99.99
2019-01-16T04:07:03.583Z,99.99
2019-01-16T04:08:03.576Z,99.99
2019-01-16T04:09:03.568Z,99.99
2019-01-16T04:10:03.546Z,99.99
2019-01-16T04:11:03.536Z,99.99
2019-01-16T04:12:03.522Z,99.99
2019-01-16T04:13:03.517Z,99.99
2019-01-16T04:14:03.506Z,99.99
2019-01-16T04:15:03.508Z,99.99
2019-01-16T04:16:03.487Z,99.99
2019-01-16T04:17:03.470Z,99.99
2019-01-16T04:18:03.459Z,99.72
2019-01-16T04:19:03.450Z,99.52
2019-01-16T04:20:03.458Z,99.72
2019-01-16T04:21:03.429Z,99.72
2019-01-16T04:22:03.417Z,99.93
2019-01-16T04:23:03.416Z,99.82
2019-01-16T04:24:03.402Z,99.99
2019-01-16T04:25:03.389Z,99.82
2019-01-16T04:26:03.386Z,99.82
2019-01-16T04:27:03.368Z,99.62
2019-01-16T04:28:03.357Z,99.93
2019-01-16T04:29:03.344Z,99.82
2019-01-16T04:30:03.340Z,99.93
2019-01-16T04:31:03.331Z,99.52
2019-01-16T04:32:03.320Z,98.69
2019-01-16T04:33:03.303Z,98.69
2019-01-16T04:34:03.289Z,99.10
2019-01-16T04:35:03.276Z,98.79
2019-01-16T04:36:03.270Z,99.00
2019-01-16T04:37:03.275Z,99.31
2019-01-16T04:38:03.259Z,98.79
2019-01-16T04:39:03.234Z,98.74
2019-01-16T04:40:03.226Z,99.10
2019-01-16T04:41:03.219Z,98.69
2019-01-16T04:42:03.208Z,98.28
2019-01-16T04:43:03.199Z,97.97
2019-01-16T04:44:03.184Z,98.18
2019-01-16T04:45:03.175Z,98.28
2019-01-16T04:46:03.162Z,98.28
2019-01-16T04:47:03.154Z,97.97
2019-01-16T04:48:03.142Z,97.14
2019-01-16T04:49:03.146Z,97.55
2019-01-16T04:50:03.127Z,97.30
2019-01-16T04:51:03.119Z,97.14
2019-01-16T04:52:03.105Z,97.30
2019-01-16T04:53:03.090Z,96.73
2019-01-16T04:54:03.088Z,97.34
2019-01-16T04:55:03.097Z,97.34
2019-01-16T04:56:03.062Z,96.94
2019-01-16T04:57:03.048Z,97.55
2019-01-16T04:58:03.043Z,97.30
2019-01-16T04:59:03.028Z,97.04
2019-01-16T05:00:03.043Z,96.99
2019-01-16T05:01:03.018Z,97.04
2019-01-16T05:02:02.998Z,96.73
2019-01-16T05:03:02.986Z,96.01
2019-01-16T05:04:02.981Z,96.11
2019-01-16T05:05:02.964Z,95.90
2019-01-16T05:06:02.963Z,95.80
2019-01-16T05:07:02.948Z,95.49
2019-01-16T05:08:02.940Z,95.45
2019-01-16T05:09:02.922Z,95.28
2019-01-16T05:10:02.920Z,95.80
2019-01-16T05:11:02.915Z,94.97
2019-01-16T05:12:02.902Z,95.28
2019-01-16T05:13:02.874Z,94.35
2019-01-16T05:14:02.867Z,95.24
2019-01-16T05:15:02.858Z,95.34
2019-01-16T05:16:02.846Z,94.25
2019-01-16T05:17:02.848Z,93.49
2019-01-16T05:18:02.820Z,93.38
2019-01-16T05:19:02.820Z,93.63
2019-01-16T05:20:02.808Z,93.59
2019-01-16T05:21:02.795Z,93.69
2019-01-16T05:22:02.791Z,92.97
2019-01-16T05:23:02.774Z,92.86
2019-01-16T05:24:02.765Z,93.43
2019-01-16T05:25:02.752Z,93.22
2019-01-16T05:26:02.743Z,93.73
2019-01-16T05:27:02.738Z,93.84
2019-01-16T05:28:02.728Z,93.28
2019-01-16T05:29:02.712Z,92.91
2019-01-16T05:30:02.705Z,92.76
2019-01-16T05:31:02.691Z,92.60
2019-01-16T05:32:02.678Z,92.55
2019-01-16T05:33:02.678Z,91.77
2019-01-16T05:34:02.656Z,91.22
2019-01-16T05:35:02.665Z,91.36
2019-01-16T05:36:02.640Z,91.73
2019-01-16T05:37:02.624Z,91.42
2019-01-16T05:38:02.620Z,91.22
2019-01-16T05:39:02.610Z,91.56
2019-01-16T05:40:02.608Z,91.52
2019-01-16T05:41:02.585Z,91.56
2019-01-16T05:42:02.577Z,91.32
2019-01-16T05:43:02.561Z,91.32
2019-01-16T05:44:02.554Z,91.11
2019-01-16T05:45:02.543Z,90.64
2019-01-16T05:46:02.542Z,90.33
2019-01-16T05:47:02.524Z,89.98
2019-01-16T05:48:02.514Z,90.19
2019-01-16T05:49:02.496Z,90.80
2019-01-16T05:50:02.491Z,90.39
2019-01-16T05:51:02.475Z,90.91
2019-01-16T05:52:02.479Z,90.19
2019-01-16T05:53:02.458Z,90.95
2019-01-16T05:54:02.444Z,89.87
2019-01-16T05:55:02.431Z,89.81
2019-01-16T05:56:02.429Z,90.28
2019-01-16T05:57:02.415Z,90.28
2019-01-16T05:58:02.409Z,89.61
2019-01-16T05:59:02.432Z,89.25
2019-01-16T06:00:02.378Z,89.50
2019-01-16T06:01:02.368Z,88.98
2019-01-16T06:02:02.364Z,89.09
2019-01-16T06:03:02.356Z,89.09
2019-01-16T06:04:02.334Z,89.05
2019-01-16T06:05:02.326Z,88.53
2019-01-16T06:06:02.315Z,88.64
2019-01-16T06:07:02.316Z,88.95
2019-01-16T06:08:02.293Z,88.64
2019-01-16T06:09:02.291Z,88.37
2019-01-16T06:10:02.271Z,88.68
2019-01-16T06:11:02.265Z,89.09
2019-01-16T06:12:02.244Z,88.95
2019-01-16T06:13:02.239Z,89.19
2019-01-16T06:14:02.232Z,89.67
2019-01-16T06:15:02.217Z,88.57
2019-01-16T06:16:02.212Z,88.89
2019-01-16T06:17:02.197Z,88.64
2019-01-16T06:18:02.186Z,88.84
2019-01-16T06:19:02.178Z,89.05
2019-01-16T06:20:02.176Z,89.25
2019-01-16T06:21:02.186Z,88.64
2019-01-16T06:22:02.141Z,88.68
2019-01-16T06:23:02.130Z,88.89
2019-01-16T06:24:02.130Z,89.09
2019-01-16T06:25:02.115Z,88.89
2019-01-16T06:26:02.092Z,89.05
2019-01-16T06:27:02.088Z,89.09
2019-01-16T06:28:02.076Z,89.81
2019-01-16T06:29:02.070Z,89.19
2019-01-16T06:30:02.054Z,89.09
2019-01-16T06:31:02.054Z,88.89
2019-01-16T06:32:02.033Z,88.95
2019-01-16T06:33:02.019Z,89.09
2019-01-16T06:34:02.018Z,88.98
2019-01-16T06:35:02.004Z,89.71
2019-01-16T06:36:01.988Z,89.71
2019-01-16T06:37:01.998Z,89.29
2019-01-16T06:38:01.974Z,90.02
2019-01-16T06:39:01.960Z,90.22
2019-01-16T06:40:01.953Z,90.12
2019-01-16T06:41:01.946Z,90.95
2019-01-16T06:42:01.931Z,90.74
2019-01-16T06:43:03.502Z,90.33
2019-01-16T06:44:01.908Z,90.89
2019-01-16T06:45:01.893Z,91.09
2019-01-16T06:46:01.885Z,90.33
2019-01-16T06:47:01.870Z,91.09
2019-01-16T06:48:01.863Z,91.71
2019-01-16T06:49:01.862Z,91.09
2019-01-16T06:50:02.311Z,91.56
2019-01-16T06:51:01.832Z,91.36
2019-01-16T06:52:01.817Z,91.77
2019-01-16T06:53:01.809Z,91.71
2019-01-16T06:54:01.808Z,91.05
2019-01-16T06:55:01.793Z,91.61
2019-01-16T06:56:01.774Z,91.50
2019-01-16T06:57:01.768Z,91.61
2019-01-16T06:58:01.757Z,91.61
2019-01-16T06:59:01.745Z,91.82
2019-01-16T07:00:01.743Z,91.82
2019-01-16T07:01:01.724Z,92.33
2019-01-16T07:02:01.722Z,92.02
2019-01-16T07:03:01.706Z,92.23
2019-01-16T07:04:01.708Z,92.33
2019-01-16T07:05:01.684Z,91.92
2019-01-16T07:06:01.674Z,92.13
2019-01-16T07:07:01.664Z,92.33
2019-01-16T07:08:01.662Z,92.33
2019-01-16T07:09:01.641Z,92.44
2019-01-16T07:10:01.641Z,91.40
2019-01-16T07:11:01.620Z,92.13
2019-01-16T07:12:01.619Z,92.13
2019-01-16T07:13:01.597Z,92.33
2019-01-16T07:14:01.592Z,92.23
2019-01-16T07:15:01.582Z,91.92
2019-01-16T07:16:01.566Z,91.71
2019-01-16T07:17:01.556Z,91.71
2019-01-16T07:18:01.544Z,91.30
2019-01-16T07:19:01.537Z,91.30
2019-01-16T07:20:01.525Z,91.50
2019-01-16T07:21:01.518Z,91.67
2019-01-16T07:22:01.505Z,91.50
2019-01-16T07:23:01.501Z,91.71
2019-01-16T07:24:01.498Z,91.09
2019-01-16T07:25:01.473Z,91.16
2019-01-16T07:26:01.462Z,91.20
2019-01-16T07:27:01.454Z,90.95
2019-01-16T07:28:01.444Z,90.99
2019-01-16T07:29:01.438Z,90.68
2019-01-16T07:30:01.433Z,90.58
2019-01-16T07:31:01.429Z,90.47
2019-01-16T07:32:01.407Z,90.99
2019-01-16T07:33:01.392Z,90.26
2019-01-16T07:34:01.380Z,90.99
2019-01-16T07:35:01.368Z,91.09
2019-01-16T07:36:01.360Z,90.95
2019-01-16T07:37:01.349Z,91.09
2019-01-16T07:38:01.340Z,90.74
2019-01-16T07:39:01.328Z,90.68
2019-01-16T07:40:01.336Z,90.68
2019-01-16T07:41:01.305Z,90.26
2019-01-16T07:42:01.293Z,90.22
2019-01-16T07:43:01.283Z,90.26
2019-01-16T07:44:01.270Z,90.26
2019-01-16T07:45:01.262Z,89.29
2019-01-16T07:46:01.260Z,89.29
2019-01-16T07:47:01.241Z,89.44
2019-01-16T07:48:01.234Z,89.81
2019-01-16T07:49:01.222Z,89.86
2019-01-16T07:50:01.208Z,90.37
2019-01-16T07:51:01.200Z,90.47
2019-01-16T07:52:01.183Z,90.84
2019-01-16T07:53:01.176Z,90.33
2019-01-16T07:54:01.167Z,90.95
2019-01-16T07:55:01.170Z,90.47
2019-01-16T07:56:01.144Z,90.37
2019-01-16T07:57:01.137Z,90.26
2019-01-16T07:58:01.121Z,90.26
2019-01-16T07:59:01.109Z,90.43
2019-01-16T08:00:01.094Z,90.47
2019-01-16T08:01:01.085Z,90.95
2019-01-16T08:02:01.076Z,90.33
2019-01-16T08:03:01.086Z,90.95
2019-01-16T08:04:01.055Z,90.47
2019-01-16T08:05:01.042Z,90.95
2019-01-16T08:06:01.040Z,90.16
2019-01-16T08:07:01.024Z,90.16
2019-01-16T08:08:01.010Z,91.09
2019-01-16T08:09:01.014Z,90.99
2019-01-16T08:10:00.996Z,90.95
2019-01-16T08:11:00.978Z,90.95
2019-01-16T08:12:00.971Z,90.43
2019-01-16T08:13:00.978Z,90.37
2019-01-16T08:14:00.948Z,90.47
2019-01-16T08:15:00.932Z,90.68
2019-01-16T08:16:00.926Z,90.47
2019-01-16T08:17:00.915Z,90.26
2019-01-16T08:18:00.906Z,90.33
2019-01-16T08:19:00.894Z,89.81
2019-01-16T08:20:00.897Z,89.71
2019-01-16T08:21:00.884Z,89.81
2019-01-16T08:22:00.873Z,90.02
2019-01-16T08:23:00.876Z,89.40
2019-01-16T08:24:00.844Z,89.50
2019-01-16T08:25:00.833Z,89.61
2019-01-16T08:26:00.841Z,89.09
2019-01-16T08:27:00.808Z,89.29
2019-01-16T08:28:00.804Z,89.81
2019-01-16T08:29:00.798Z,89.50
2019-01-16T08:30:00.837Z,89.09
2019-01-16T08:31:00.777Z,88.98
2019-01-16T08:32:00.751Z,89.29
2019-01-16T08:33:01.592Z,89.19
2019-01-16T08:34:00.741Z,89.50
2019-01-16T08:35:00.717Z,89.50
2019-01-16T08:36:00.715Z,89.19
2019-01-16T08:37:00.703Z,88.98
2019-01-16T08:38:00.688Z,88.98
2019-01-16T08:39:00.676Z,89.36
2019-01-16T08:40:00.664Z,89.15
2019-01-16T08:41:00.656Z,89.19
2019-01-16T08:42:00.645Z,89.36
2019-01-16T08:43:00.632Z,89.29
2019-01-16T08:44:00.621Z,89.46
2019-01-16T08:45:00.613Z,89.50
2019-01-16T08:46:00.602Z,89.87
2019-01-16T08:47:00.589Z,88.89
2019-01-16T08:48:00.590Z,89.81
2019-01-16T08:49:00.573Z,89.46
2019-01-16T08:50:00.559Z,89.50
2019-01-16T08:51:00.553Z,89.61
2019-01-16T08:52:00.539Z,89.77
2019-01-16T08:53:00.520Z,89.56
2019-01-16T08:54:00.513Z,89.46
2019-01-16T08:55:00.498Z,89.71
2019-01-16T08:56:00.491Z,90.22
2019-01-16T08:57:00.483Z,90.39
2019-01-16T08:58:00.478Z,90.33
2019-01-16T08:59:00.467Z,90.43
2019-01-16T09:00:00.450Z,90.91
2019-01-16T09:01:00.439Z,90.95
2019-01-16T09:02:00.424Z,90.53
2019-01-16T09:03:00.418Z,90.95
2019-01-16T09:04:00.409Z,90.91
2019-01-16T09:05:00.397Z,90.08
2019-01-16T09:06:00.380Z,90.91
2019-01-16T09:07:00.372Z,90.43
2019-01-16T09:08:00.370Z,90.28
2019-01-16T09:09:00.346Z,90.33
2019-01-16T09:10:00.342Z,90.33
2019-01-16T09:11:00.322Z,90.12
2019-01-16T09:12:00.317Z,90.12
2019-01-16T09:13:00.300Z,90.39
2019-01-16T09:14:00.313Z,90.43
2019-01-16T09:15:00.284Z,90.33
2019-01-16T09:16:00.276Z,90.43
2019-01-16T09:17:00.261Z,90.53
2019-01-16T09:18:00.254Z,90.19
2019-01-16T09:19:00.238Z,89.36
2019-01-16T09:20:00.232Z,89.15
2019-01-16T09:21:00.214Z,89.98
2019-01-16T09:22:00.204Z,90.19
2019-01-16T09:23:00.191Z,90.49
2019-01-16T09:24:00.182Z,90.28
2019-01-16T09:25:00.181Z,90.39
2019-01-16T09:26:00.163Z,89.56
2019-01-16T09:27:00.155Z,90.02
2019-01-16T09:28:00.139Z,89.98
2019-01-16T09:29:00.130Z,89.25
2019-01-16T09:30:00.282Z,89.25
2019-01-16T09:31:00.114Z,89.15
2019-01-16T09:32:00.100Z,89.77
2019-01-16T09:33:00.093Z,89.25
2019-01-16T09:34:00.077Z,89.36
2019-01-16T09:35:00.223Z,89.15
2019-01-16T09:36:00.063Z,89.46
2019-01-16T09:37:00.048Z,89.46
2019-01-16T09:38:00.034Z,89.56
2019-01-16T09:39:00.035Z,89.46
2019-01-16T09:40:00.014Z,88.95
2019-01-16T09:41:00.004Z,89.25
2019-01-16T09:41:59.995Z,89.25
2019-01-16T09:42:59.986Z,89.36
2019-01-16T09:43:59.972Z,89.25
2019-01-16T09:44:59.966Z,88.59
2019-01-16T09:45:59.949Z,89.05
2019-01-16T09:46:59.943Z,89.05
2019-01-16T09:47:59.932Z,89.05
2019-01-16T09:48:59.920Z,89.25
2019-01-16T09:49:59.920Z,89.25
2019-01-16T09:50:59.900Z,89.36
2019-01-16T09:51:59.882Z,89.56
2019-01-16T09:52:59.877Z,89.15
2019-01-16T09:53:59.874Z,88.95
2019-01-16T09:54:59.855Z,89.25
2019-01-16T09:55:59.849Z,89.56
2019-01-16T09:56:59.843Z,89.71
2019-01-16T09:57:59.823Z,89.81
2019-01-16T09:58:59.810Z,89.50
2019-01-16T09:59:59.796Z,89.81
2019-01-16T10:00:59.790Z,89.40
2019-01-16T10:01:59.777Z,89.81
2019-01-16T10:02:59.763Z,89.36
2019-01-16T10:03:59.752Z,89.25
2019-01-16T10:04:59.746Z,88.98
2019-01-16T10:05:59.734Z,88.95
2019-01-16T10:06:59.734Z,88.84
2019-01-16T10:07:59.711Z,89.09
2019-01-16T10:08:59.704Z,88.84
2019-01-16T10:09:59.693Z,89.36
2019-01-16T10:10:59.741Z,88.78
2019-01-16T10:11:59.668Z,88.74
2019-01-16T10:12:59.658Z,88.32
2019-01-16T10:13:59.650Z,88.74
2019-01-16T10:14:59.636Z,88.78
2019-01-16T10:15:59.629Z,88.22
2019-01-16T10:16:59.621Z,88.57
2019-01-16T10:17:59.608Z,88.47
2019-01-16T10:18:59.595Z,88.22
2019-01-16T10:19:59.584Z,87.85
2019-01-16T10:20:59.575Z,88.43
2019-01-16T10:21:59.569Z,88.12
2019-01-16T10:22:59.552Z,88.32
2019-01-16T10:23:59.546Z,87.65
2019-01-16T10:24:59.538Z,86.98
2019-01-16T10:25:59.522Z,87.29
2019-01-16T10:26:59.510Z,87.81
2019-01-16T10:27:59.506Z,87.40
2019-01-16T10:28:59.488Z,87.40
2019-01-16T10:29:59.489Z,87.50
2019-01-16T10:30:59.470Z,87.44
2019-01-16T10:31:59.462Z,87.71
2019-01-16T10:32:59.447Z,87.29
2019-01-16T10:33:59.456Z,87.71
2019-01-16T10:35:00.447Z,87.81
2019-01-16T10:35:59.416Z,87.71
2019-01-16T10:36:59.409Z,87.40
2019-01-16T10:37:59.404Z,87.60
2019-01-16T10:38:59.385Z,87.29
2019-01-16T10:39:59.374Z,87.71
2019-01-16T10:40:59.362Z,87.19
2019-01-16T10:41:59.356Z,87.54
2019-01-16T10:42:59.339Z,87.29
2019-01-16T10:43:59.329Z,86.98
2019-01-16T10:44:59.330Z,87.19
2019-01-16T10:45:59.306Z,87.19
2019-01-16T10:46:59.302Z,86.98
2019-01-16T10:47:59.282Z,87.29
2019-01-16T10:48:59.310Z,87.29
2019-01-16T10:49:59.258Z,86.98
2019-01-16T10:51:03.131Z,86.88
2019-01-16T10:51:59.245Z,86.57
2019-01-16T10:52:59.246Z,86.68
2019-01-16T10:53:59.220Z,86.26
2019-01-16T10:54:59.212Z,86.78
2019-01-16T10:55:59.195Z,86.26
2019-01-16T10:56:59.188Z,86.26
2019-01-16T10:57:59.178Z,86.78
2019-01-16T10:58:59.163Z,86.78
2019-01-16T10:59:59.164Z,86.78
2019-01-16T11:00:59.148Z,86.36
2019-01-16T11:01:59.130Z,86.74
2019-01-16T11:02:59.126Z,87.08
2019-01-16T11:03:59.118Z,86.88
2019-01-16T11:04:59.105Z,86.32
2019-01-16T11:05:59.092Z,86.78
2019-01-16T11:06:59.082Z,86.36
2019-01-16T11:07:59.104Z,86.57
2019-01-16T11:08:59.072Z,86.88
2019-01-16T11:09:59.050Z,86.74
2019-01-16T11:10:59.035Z,86.43
2019-01-16T11:11:59.025Z,87.05
2019-01-16T11:12:59.016Z,86.57
2019-01-16T11:13:58.998Z,86.53
2019-01-16T11:14:58.998Z,87.05
2019-01-16T11:15:58.985Z,86.94
2019-01-16T11:16:58.968Z,86.26
2019-01-16T11:17:58.956Z,86.78
2019-01-16T11:18:58.948Z,86.63
2019-01-16T11:19:58.941Z,86.78
2019-01-16T11:20:58.924Z,86.84
2019-01-16T11:21:58.922Z,86.74
2019-01-16T11:22:58.901Z,86.94
2019-01-16T11:23:58.897Z,86.63
2019-01-16T11:24:58.882Z,86.26
2019-01-16T11:25:58.877Z,86.43
2019-01-16T11:26:58.870Z,86.63
2019-01-16T11:27:58.845Z,85.91
2019-01-16T11:28:58.838Z,86.12
2019-01-16T11:29:58.826Z,86.32
2019-01-16T11:30:58.814Z,86.32
2019-01-16T11:31:58.808Z,86.22
2019-01-16T11:32:58.793Z,86.43
2019-01-16T11:33:58.783Z,85.39
2019-01-16T11:34:58.777Z,85.39
2019-01-16T11:35:58.762Z,85.46
2019-01-16T11:36:58.761Z,84.74
2019-01-16T11:37:58.762Z,85.15
2019-01-16T11:38:58.727Z,84.84
2019-01-16T11:40:04.684Z,85.46
2019-01-16T11:40:59.705Z,85.36
2019-01-16T11:41:58.694Z,85.25
2019-01-16T11:42:58.690Z,84.84
2019-01-16T11:43:58.672Z,85.09
2019-01-16T11:44:58.660Z,85.05
2019-01-16T11:45:58.647Z,85.05
2019-01-16T11:46:58.643Z,85.15
2019-01-16T11:47:59.222Z,84.84
2019-01-16T11:48:58.615Z,84.94
2019-01-16T11:49:58.647Z,84.94
2019-01-16T11:50:58.598Z,84.84
2019-01-16T11:51:58.586Z,84.64
2019-01-16T11:52:58.572Z,84.84
2019-01-16T11:53:58.566Z,85.25
2019-01-16T11:54:58.558Z,85.05
2019-01-16T11:55:58.536Z,84.84
2019-01-16T11:56:58.533Z,84.94
2019-01-16T11:57:58.518Z,84.94
2019-01-16T11:58:58.509Z,84.84
2019-01-16T11:59:58.501Z,84.94
2019-01-16T12:00:58.484Z,85.05
2019-01-16T12:01:58.483Z,84.64
2019-01-16T12:02:58.462Z,84.94
2019-01-16T12:03:58.463Z,84.84
2019-01-16T12:04:58.440Z,85.05
2019-01-16T12:05:58.435Z,85.25
2019-01-16T12:06:58.418Z,84.22
2019-01-16T12:07:58.416Z,84.22
2019-01-16T12:08:58.398Z,83.61
2019-01-16T12:09:58.385Z,83.91
2019-01-16T12:10:58.381Z,83.91
2019-01-16T12:11:58.363Z,84.01
2019-01-16T12:12:58.355Z,84.22
2019-01-16T12:13:58.344Z,83.61
2019-01-16T12:14:58.338Z,84.12
2019-01-16T12:15:58.331Z,84.12
2019-01-16T12:16:58.310Z,83.91
2019-01-16T12:17:58.299Z,84.22
2019-01-16T12:18:58.289Z,83.50
2019-01-16T12:19:58.276Z,83.91
2019-01-16T12:20:58.266Z,83.50
2019-01-16T12:21:58.254Z,83.26
2019-01-16T12:22:58.246Z,83.40
2019-01-16T12:23:58.233Z,83.50
2019-01-16T12:24:58.227Z,82.98
2019-01-16T12:25:58.215Z,82.84
2019-01-16T12:26:58.207Z,83.15
2019-01-16T12:27:58.203Z,83.09
2019-01-16T12:28:58.312Z,83.61
2019-01-16T12:29:58.171Z,83.05
2019-01-16T12:30:58.159Z,83.50
2019-01-16T12:31:58.151Z,83.36
2019-01-16T12:32:58.135Z,83.47
2019-01-16T12:33:58.140Z,83.61
2019-01-16T12:34:58.115Z,83.67
2019-01-16T12:35:58.108Z,83.05
2019-01-16T12:36:58.113Z,83.61
2019-01-16T12:37:58.085Z,83.19
2019-01-16T12:38:58.076Z,83.09
2019-01-16T12:39:58.054Z,83.26
2019-01-16T12:40:58.052Z,83.09
2019-01-16T12:41:59.732Z,83.36
2019-01-16T12:42:58.092Z,83.19
2019-01-16T12:43:58.024Z,83.19
2019-01-16T12:44:58.010Z,83.61
2019-01-16T12:45:57.994Z,83.40
2019-01-16T12:46:57.986Z,83.61
2019-01-16T12:47:57.978Z,83.87
2019-01-16T12:48:57.964Z,83.61
2019-01-16T12:49:57.959Z,83.40
2019-01-16T12:50:57.941Z,83.40
2019-01-16T12:51:57.928Z,83.81